Time;durP1;ratioP1;P1;durP2;ratioP2;P2;SDS_P1;SDS_P2;PMS_P1;PMS_P2;Temp;Humidity;BMP_temperature;BMP_pressure;BME280_temperature;BME280_humidity;BME280_pressure;Samples;Min_cycle;Max_cycle;Signal;HPM_P1;HPM_P2
2023/05/28 00:01:28;;;;;;;12.52;5.60;;;18.20;88.80;;;;;;4198639;28;20075;-54
2023/05/28 00:03:32;;;;;;;21.83;6.20;;;18.20;89.00;;;;;;4198902;28;20049;-54
2023/05/28 00:05:35;;;;;;;22.15;7.03;;;18.20;89.00;;;;;;4199543;28;20410;-61
2023/05/28 00:07:39;;;;;;;19.08;6.38;;;18.20;89.60;;;;;;4197549;28;20044;-55
2023/05/28 00:09:41;;;;;;;17.88;6.05;;;18.10;89.90;;;;;;4198532;28;20052;-56
2023/05/28 00:11:43;;;;;;;23.60;6.95;;;18.10;90.30;;;;;;4199176;28;20123;-54
2023/05/28 00:13:45;;;;;;;22.77;6.88;;;18.10;90.20;;;;;;4198423;28;20127;-54
2023/05/28 00:15:48;;;;;;;20.88;6.97;;;18.00;90.20;;;;;;4197358;28;20083;-55
2023/05/28 00:17:54;;;;;;;24.08;7.40;;;17.90;90.50;;;;;;4198111;28;20041;-54
2023/05/28 00:19:57;;;;;;;20.63;7.22;;;17.90;90.70;;;;;;4198059;28;20052;-54
2023/05/28 00:22:00;;;;;;;18.08;6.18;;;17.90;90.80;;;;;;4198356;28;20051;-54
2023/05/28 00:24:03;;;;;;;17.08;6.88;;;17.90;90.80;;;;;;4198158;28;20040;-55
2023/05/28 00:26:05;;;;;;;20.42;6.57;;;17.70;91.00;;;;;;4201121;28;20051;-54
2023/05/28 00:28:07;;;;;;;22.00;7.93;;;17.70;91.20;;;;;;4214455;28;20044;-55
2023/05/28 00:30:10;;;;;;;23.40;7.60;;;17.70;91.20;;;;;;4214720;28;20048;-54
2023/05/28 00:32:12;;;;;;;21.92;7.88;;;17.70;91.30;;;;;;4214656;28;20421;-54
2023/05/28 00:34:14;;;;;;;22.70;7.50;;;17.70;91.40;;;;;;4214946;28;20044;-55
2023/05/28 00:36:18;;;;;;;21.50;7.82;;;17.60;91.50;;;;;;4214028;28;20104;-54
2023/05/28 00:38:20;;;;;;;21.63;9.00;;;17.70;91.50;;;;;;4209221;28;20412;-53
2023/05/28 00:40:22;;;;;;;20.02;8.50;;;17.60;91.60;;;;;;4197928;28;20044;-60
2023/05/28 00:42:24;;;;;;;24.00;7.78;;;17.60;91.70;;;;;;4197461;28;20380;-53
2023/05/28 00:44:27;;;;;;;21.88;7.85;;;17.60;91.70;;;;;;4197742;28;20134;-54
2023/05/28 00:46:30;;;;;;;28.20;8.48;;;17.60;91.70;;;;;;4195476;28;20048;-55
2023/05/28 00:48:32;;;;;;;24.52;8.02;;;17.60;91.80;;;;;;4197631;28;20044;-53
2023/05/28 00:50:35;;;;;;;23.48;8.30;;;17.60;91.80;;;;;;4197459;28;20145;-54
2023/05/28 00:52:40;;;;;;;31.85;8.85;;;17.50;92.00;;;;;;4197741;28;20094;-54
2023/05/28 00:54:42;;;;;;;26.40;8.77;;;17.50;92.10;;;;;;4197634;28;20446;-54
2023/05/28 00:56:46;;;;;;;26.77;8.93;;;17.50;92.10;;;;;;4196310;28;20072;-55
2023/05/28 00:58:49;;;;;;;26.27;9.18;;;17.40;92.30;;;;;;4197849;28;20052;-57
2023/05/28 01:00:51;;;;;;;21.15;9.35;;;17.40;92.50;;;;;;4197447;28;20123;-57
2023/05/28 01:02:53;;;;;;;25.50;8.77;;;17.20;92.70;;;;;;4197476;28;20056;-57
2023/05/28 01:04:55;;;;;;;22.50;8.45;;;17.30;92.60;;;;;;4197639;28;20045;-56
2023/05/28 01:06:58;;;;;;;24.13;8.80;;;17.30;92.70;;;;;;4196342;28;20529;-57
2023/05/28 01:09:02;;;;;;;30.58;9.85;;;17.20;92.90;;;;;;4197422;28;20056;-57
2023/05/28 01:11:05;;;;;;;31.35;9.25;;;17.20;92.90;;;;;;4197353;28;20048;-57
2023/05/28 01:13:08;;;;;;;28.98;9.68;;;17.20;92.90;;;;;;4196491;28;20114;-56
2023/05/28 01:15:11;;;;;;;28.25;9.32;;;17.20;92.80;;;;;;4197372;28;20048;-57
2023/05/28 01:17:14;;;;;;;24.42;9.40;;;17.10;92.90;;;;;;4196546;28;20401;-56
2023/05/28 01:19:21;;;;;;;31.80;9.98;;;17.20;92.90;;;;;;4196844;28;20398;-56
2023/05/28 01:21:27;;;;;;;30.92;8.98;;;17.20;92.90;;;;;;4197196;28;20430;-57
2023/05/28 01:23:37;;;;;;;33.45;9.73;;;17.20;92.90;;;;;;4197297;28;20052;-54
2023/05/28 01:25:40;;;;;;;27.80;9.35;;;17.20;92.90;;;;;;4195540;28;20049;-54
2023/05/28 01:27:42;;;;;;;24.05;7.95;;;17.20;92.90;;;;;;4213862;28;20046;-57
2023/05/28 01:29:45;;;;;;;29.60;8.63;;;17.20;92.90;;;;;;4215393;28;20109;-57
2023/05/28 01:31:47;;;;;;;34.55;10.23;;;17.20;93.10;;;;;;4215364;28;20127;-57
2023/05/28 01:33:49;;;;;;;25.85;9.23;;;17.20;93.00;;;;;;4214978;28;20040;-57
2023/05/28 01:35:54;;;;;;;26.60;9.55;;;17.10;93.10;;;;;;4214070;28;20070;-57
2023/05/28 01:38:02;;;;;;;28.33;9.48;;;17.20;93.10;;;;;;4210803;28;20074;-56
2023/05/28 01:40:08;;;;;;;25.13;9.07;;;17.10;93.10;;;;;;4197067;28;20126;-57
2023/05/28 01:42:11;;;;;;;25.75;8.98;;;17.10;93.20;;;;;;4196989;28;20159;-56
2023/05/28 01:44:16;;;;;;;26.33;9.93;;;17.10;93.30;;;;;;4197238;28;20158;-57
2023/05/28 01:46:19;;;;;;;23.77;9.20;;;17.10;93.20;;;;;;4196728;28;20068;-57
2023/05/28 01:48:22;;;;;;;23.45;10.80;;;17.20;93.40;;;;;;4199308;28;20074;-58
2023/05/28 01:50:25;;;;;;;29.80;10.02;;;17.20;93.00;;;;;;4198067;28;20519;-56
2023/05/28 01:52:28;;;;;;;25.83;8.45;;;17.30;93.00;;;;;;4197433;28;20044;-54
2023/05/28 01:54:30;;;;;;;22.55;8.80;;;17.30;93.10;;;;;;4196790;28;20056;-55
2023/05/28 01:56:35;;;;;;;28.65;10.05;;;17.20;93.00;;;;;;4196063;28;20048;-54
2023/05/28 01:58:37;;;;;;;28.20;9.40;;;17.20;93.00;;;;;;4197108;28;20499;-53
2023/05/28 02:00:46;;;;;;;24.05;9.48;;;17.20;93.10;;;;;;4196826;28;20076;-54
2023/05/28 02:02:48;;;;;;;23.10;9.50;;;17.20;93.10;;;;;;4197390;28;20123;-55
2023/05/28 02:04:50;;;;;;;28.23;8.63;;;17.10;93.30;;;;;;4197236;28;20118;-54
2023/05/28 02:06:52;;;;;;;27.42;9.05;;;17.10;93.50;;;;;;4195784;28;20052;-54
2023/05/28 02:08:54;;;;;;;24.35;9.73;;;17.20;93.30;;;;;;4196731;28;20040;-54
2023/05/28 02:10:58;;;;;;;29.70;10.02;;;17.20;93.20;;;;;;4196747;28;20055;-53
2023/05/28 02:13:01;;;;;;;29.02;10.02;;;17.20;93.20;;;;;;4196718;28;20445;-53
2023/05/28 02:15:05;;;;;;;26.98;8.93;;;17.30;93.20;;;;;;4197053;28;20410;-52
2023/05/28 02:17:07;;;;;;;24.42;9.52;;;17.20;93.20;;;;;;4195871;28;20094;-54
2023/05/28 02:19:09;;;;;;;22.40;9.50;;;17.30;93.10;;;;;;4197138;28;20143;-57
2023/05/28 02:21:12;;;;;;;21.08;9.00;;;17.20;93.40;;;;;;4197212;28;20052;-53
2023/05/28 02:23:14;;;;;;;31.80;11.00;;;17.20;93.30;;;;;;4196629;28;20052;-55
2023/05/28 02:25:16;;;;;;;24.83;10.25;;;17.20;93.30;;;;;;4196623;28;20044;-55
2023/05/28 02:27:19;;;;;;;25.98;10.55;;;17.20;93.30;;;;;;4209966;28;20132;-55
2023/05/28 02:29:23;;;;;;;31.88;12.15;;;17.20;93.30;;;;;;4213864;28;20052;-55
2023/05/28 02:31:25;;;;;;;31.67;10.55;;;17.10;93.30;;;;;;4215614;28;20127;-56
2023/05/28 02:33:27;;;;;;;29.40;10.90;;;17.10;93.40;;;;;;4216821;28;20051;-56
2023/05/28 02:35:30;;;;;;;31.40;10.90;;;17.10;93.30;;;;;;4218570;28;20414;-60
2023/05/28 02:37:32;;;;;;;31.30;10.80;;;17.10;93.30;;;;;;4217706;28;20051;-54
2023/05/28 02:39:34;;;;;;;27.40;10.80;;;17.10;93.40;;;;;;4203001;28;20048;-65
2023/05/28 02:41:36;;;;;;;25.83;10.07;;;17.10;93.40;;;;;;4200840;28;20180;-54
2023/05/28 02:43:38;;;;;;;24.48;9.95;;;17.20;93.60;;;;;;4199613;28;20091;-59
2023/05/28 02:45:41;;;;;;;26.63;8.95;;;17.10;93.60;;;;;;4199664;28;20064;-53
2023/05/28 02:47:43;;;;;;;27.52;10.32;;;17.10;93.70;;;;;;4198702;28;20477;-53
2023/05/28 02:49:46;;;;;;;30.40;11.18;;;17.00;93.70;;;;;;4199474;28;20052;-53
2023/05/28 02:51:48;;;;;;;28.73;11.32;;;17.00;93.80;;;;;;4199724;28;20052;-53
2023/05/28 02:53:50;;;;;;;27.70;11.15;;;16.90;93.80;;;;;;4199325;28;20512;-55
2023/05/28 02:55:52;;;;;;;38.25;11.32;;;16.90;93.80;;;;;;4199455;28;20049;-56
2023/05/28 02:57:55;;;;;;;26.42;10.68;;;17.00;93.90;;;;;;4197195;28;20048;-54
2023/05/28 02:59:59;;;;;;;32.05;11.50;;;17.00;93.80;;;;;;4199228;28;20119;-55
2023/05/28 03:02:03;;;;;;;26.55;11.48;;;16.90;93.80;;;;;;4199477;28;20162;-56
2023/05/28 03:04:05;;;;;;;27.35;9.77;;;16.90;93.80;;;;;;4199149;28;20051;-57
2023/05/28 03:06:07;;;;;;;30.02;10.65;;;16.90;94.00;;;;;;4199150;28;20051;-57
2023/05/28 03:08:09;;;;;;;26.60;10.48;;;16.90;94.20;;;;;;4196654;28;20052;-54
2023/05/28 03:10:12;;;;;;;27.00;9.70;;;16.90;93.90;;;;;;4199209;28;20041;-53
2023/05/28 03:12:14;;;;;;;33.00;11.18;;;17.00;93.80;;;;;;4199294;28;20082;-54
2023/05/28 03:14:16;;;;;;;27.20;10.98;;;17.00;93.80;;;;;;4199269;28;20110;-54
2023/05/28 03:16:18;;;;;;;33.80;12.15;;;16.90;93.80;;;;;;4198805;28;20439;-54
2023/05/28 03:18:22;;;;;;;24.73;10.63;;;16.90;93.80;;;;;;4199236;28;20048;-54
2023/05/28 03:20:24;;;;;;;28.65;10.88;;;16.90;93.80;;;;;;4199485;28;20044;-54
2023/05/28 03:22:26;;;;;;;24.67;10.93;;;16.90;93.80;;;;;;4198378;28;20123;-58
2023/05/28 03:24:30;;;;;;;23.60;10.02;;;17.00;93.80;;;;;;4201566;28;20048;-54
2023/05/28 03:26:33;;;;;;;31.52;10.43;;;16.90;93.80;;;;;;4207854;28;20044;-54
2023/05/28 03:28:35;;;;;;;27.83;10.85;;;17.00;93.90;;;;;;4217577;28;20044;-56
2023/05/28 03:30:37;;;;;;;32.40;10.75;;;16.90;93.80;;;;;;4216710;28;20051;-56
2023/05/28 03:32:39;;;;;;;27.33;11.02;;;16.90;93.80;;;;;;4215843;28;20105;-52
2023/05/28 03:34:43;;;;;;;25.58;10.88;;;16.90;93.90;;;;;;4215869;28;20078;-54
2023/05/28 03:36:45;;;;;;;33.53;11.18;;;16.90;93.90;;;;;;4214669;28;20071;-54
2023/05/28 03:38:47;;;;;;;21.73;9.43;;;16.90;94.00;;;;;;4206086;28;20044;-53
2023/05/28 03:40:49;;;;;;;29.45;11.43;;;16.80;94.00;;;;;;4199072;28;20504;-53
2023/05/28 03:42:52;;;;;;;29.08;11.32;;;16.70;94.00;;;;;;4198386;28;20110;-55
2023/05/28 03:44:54;;;;;;;28.85;10.15;;;16.70;94.00;;;;;;4198699;28;20055;-56
2023/05/28 03:46:57;;;;;;;41.42;12.48;;;16.70;94.10;;;;;;4197683;28;20052;-55
2023/05/28 03:48:59;;;;;;;32.33;11.82;;;16.70;94.00;;;;;;4198726;28;20059;-55
2023/05/28 03:51:04;;;;;;;25.90;11.73;;;16.70;93.90;;;;;;4198460;28;20059;-55
2023/05/28 03:53:06;;;;;;;25.88;11.10;;;16.50;94.00;;;;;;4198770;28;20054;-56
2023/05/28 03:55:08;;;;;;;27.42;11.60;;;16.60;94.10;;;;;;4199315;28;20505;-56
2023/05/28 03:57:10;;;;;;;30.30;11.65;;;16.60;94.10;;;;;;4198717;28;20048;-56
2023/05/28 03:59:13;;;;;;;31.70;12.52;;;16.50;94.00;;;;;;4198168;28;20056;-55
2023/05/28 04:01:16;;;;;;;30.10;12.55;;;16.40;94.20;;;;;;4197635;28;20471;-56
2023/05/28 04:03:18;;;;;;;27.05;11.05;;;16.50;94.10;;;;;;4198578;28;20053;-55
2023/05/28 04:05:20;;;;;;;31.08;11.80;;;16.40;94.20;;;;;;4198468;28;20048;-55
2023/05/28 04:07:23;;;;;;;29.17;11.38;;;16.40;94.10;;;;;;4197406;28;20075;-55
2023/05/28 04:09:27;;;;;;;32.95;12.52;;;16.40;94.40;;;;;;4198578;28;20048;-56
2023/05/28 04:11:29;;;;;;;28.13;11.70;;;16.30;94.50;;;;;;4198228;28;20092;-56
2023/05/28 04:13:32;;;;;;;33.00;13.75;;;16.30;94.40;;;;;;4198422;28;20082;-55
2023/05/28 04:15:34;;;;;;;29.20;11.63;;;16.30;94.40;;;;;;4198078;28;20044;-56
2023/05/28 04:17:39;;;;;;;32.85;12.20;;;16.30;94.30;;;;;;4195958;28;20207;-55
2023/05/28 04:19:41;;;;;;;27.90;12.75;;;16.20;94.30;;;;;;4197704;28;20064;-58
2023/05/28 04:21:44;;;;;;;31.95;12.77;;;16.30;94.30;;;;;;4198473;28;20040;-56
2023/05/28 04:23:48;;;;;;;27.65;12.27;;;16.20;94.40;;;;;;4198464;28;20075;-57
2023/05/28 04:25:50;;;;;;;33.20;13.57;;;16.20;94.40;;;;;;4199909;28;20125;-57
2023/05/28 04:27:52;;;;;;;32.60;13.05;;;16.10;94.40;;;;;;4213819;28;20401;-56
2023/05/28 04:29:56;;;;;;;31.67;13.02;;;16.10;94.40;;;;;;4214568;28;20123;-63
2023/05/28 04:31:58;;;;;;;37.40;12.77;;;16.10;94.60;;;;;;4196392;28;20044;-56
2023/05/28 04:34:03;;;;;;;31.13;12.50;;;16.10;94.60;;;;;;4214485;28;20048;-56
2023/05/28 04:36:08;;;;;;;33.58;12.70;;;16.10;94.50;;;;;;4214703;28;20048;-56
2023/05/28 04:38:10;;;;;;;30.80;12.30;;;16.00;94.60;;;;;;4209652;28;20521;-57
2023/05/28 04:40:13;;;;;;;34.42;12.93;;;16.00;94.60;;;;;;4198062;28;20405;-56
2023/05/28 04:42:18;;;;;;;31.40;13.07;;;15.90;94.70;;;;;;4197808;28;20088;-55
2023/05/28 04:44:20;;;;;;;25.33;12.43;;;16.00;94.70;;;;;;4197291;28;20040;-55
2023/05/28 04:46:25;;;;;;;30.58;12.48;;;16.00;94.60;;;;;;4198066;28;20044;-53
2023/05/28 04:48:28;;;;;;;35.33;13.73;;;16.00;94.50;;;;;;4196501;28;20040;-55
2023/05/28 04:50:30;;;;;;;29.23;12.10;;;16.00;94.60;;;;;;4198267;28;20058;-54
2023/05/28 04:52:35;;;;;;;39.80;13.45;;;16.00;94.50;;;;;;4198900;28;20413;-54
2023/05/28 04:54:37;;;;;;;;;;;16.00;94.40;;;;;;4198424;28;20040;-54
2023/05/28 04:56:40;;;;;;;29.95;12.02;;;16.00;94.40;;;;;;4197405;28;19924;-58
2023/05/28 04:58:42;;;;;;;28.80;13.35;;;16.00;94.60;;;;;;4195536;28;20134;-56
2023/05/28 05:00:45;;;;;;;36.63;13.05;;;16.10;94.40;;;;;;4197555;28;20048;-65
2023/05/28 05:02:47;;;;;;;34.03;13.50;;;16.10;94.20;;;;;;4197166;28;20048;-53
2023/05/28 05:04:50;;;;;;;27.10;12.70;;;16.00;94.40;;;;;;4197677;28;20040;-54
2023/05/28 05:06:52;;;;;;;30.38;12.77;;;16.10;94.50;;;;;;4196779;28;20119;-53
2023/05/28 05:08:54;;;;;;;30.98;13.07;;;16.00;94.40;;;;;;4198018;28;20064;-54
2023/05/28 05:11:00;;;;;;;33.10;12.35;;;16.00;94.40;;;;;;4198874;28;20173;-60
2023/05/28 05:13:03;;;;;;;32.90;12.57;;;16.00;94.40;;;;;;4198412;28;20068;-54
2023/05/28 05:15:08;;;;;;;33.30;13.43;;;16.00;94.40;;;;;;4199302;28;20045;-55
2023/05/28 05:17:11;;;;;;;29.35;12.80;;;16.00;94.50;;;;;;4197703;28;20484;-54
2023/05/28 05:19:13;;;;;;;28.10;12.27;;;16.00;94.40;;;;;;4197680;28;20048;-56
2023/05/28 05:21:15;;;;;;;28.17;12.23;;;16.10;94.30;;;;;;4197443;28;20055;-57
2023/05/28 05:23:17;;;;;;;28.10;12.10;;;16.10;94.40;;;;;;4197925;28;20048;-57
2023/05/28 05:25:19;;;;;;;28.65;11.95;;;16.10;94.40;;;;;;4197538;28;20052;-56
2023/05/28 05:27:22;;;;;;;30.50;12.75;;;16.00;94.40;;;;;;4211287;28;20044;-56
2023/05/28 05:29:25;;;;;;;26.98;12.30;;;16.00;94.50;;;;;;4214111;28;20048;-61
2023/05/28 05:31:28;;;;;;;32.53;12.95;;;16.10;94.40;;;;;;4196334;28;20095;-59
2023/05/28 05:33:30;;;;;;;26.67;12.70;;;16.00;94.40;;;;;;4214453;28;20129;-57
2023/05/28 05:35:33;;;;;;;28.77;12.40;;;16.10;94.30;;;;;;4196300;28;20127;-57
2023/05/28 05:37:35;;;;;;;31.30;12.73;;;16.00;94.50;;;;;;4213371;28;20044;-56
2023/05/28 05:39:37;;;;;;;30.23;12.70;;;16.00;94.50;;;;;;4200522;28;20107;-59
2023/05/28 05:41:40;;;;;;;29.13;12.57;;;16.00;94.50;;;;;;4199996;28;20045;-57
2023/05/28 05:43:43;;;;;;;28.17;12.55;;;16.10;94.40;;;;;;4199280;28;20048;-54
2023/05/28 05:45:46;;;;;;;27.42;13.02;;;16.10;94.30;;;;;;4198508;28;20537;-56
2023/05/28 05:47:48;;;;;;;25.63;11.70;;;16.10;94.20;;;;;;4196412;28;20100;-55
2023/05/28 05:49:51;;;;;;;29.35;13.45;;;16.10;94.30;;;;;;4197615;28;20506;-53
2023/05/28 05:51:53;;;;;;;31.13;13.25;;;16.20;94.20;;;;;;4197468;28;20540;-53
2023/05/28 05:53:55;;;;;;;29.77;12.90;;;16.30;94.10;;;;;;4197562;28;20441;-57
2023/05/28 05:55:58;;;;;;;29.50;11.60;;;16.30;94.20;;;;;;4197118;28;20048;-57
2023/05/28 05:58:01;;;;;;;26.13;11.52;;;16.40;94.00;;;;;;4195438;28;20102;-56
2023/05/28 06:00:05;;;;;;;29.60;11.90;;;16.40;94.10;;;;;;4197193;28;20096;-57
2023/05/28 06:02:09;;;;;;;33.15;13.07;;;16.30;94.10;;;;;;4196847;28;20135;-57
2023/05/28 06:04:11;;;;;;;24.60;11.57;;;16.40;93.90;;;;;;4197092;28;20414;-56
2023/05/28 06:06:13;;;;;;;33.53;12.68;;;16.40;94.10;;;;;;4198475;28;20044;-56
2023/05/28 06:08:15;;;;;;;27.67;11.73;;;16.60;93.90;;;;;;4199399;28;20040;-53
2023/05/28 06:10:17;;;;;;;26.60;11.63;;;16.50;94.10;;;;;;4200344;28;20060;-55
2023/05/28 06:12:20;;;;;;;26.92;11.40;;;16.60;94.00;;;;;;4200067;28;20127;-54
2023/05/28 06:14:22;;;;;;;30.65;13.30;;;16.70;93.70;;;;;;4200347;28;20044;-54
2023/05/28 06:16:25;;;;;;;25.30;11.68;;;16.80;93.50;;;;;;4200254;28;20406;-57
2023/05/28 06:18:31;;;;;;;25.27;11.13;;;16.70;93.50;;;;;;4199509;28;20051;-56
2023/05/28 06:20:33;;;;;;;24.30;11.40;;;16.80;93.50;;;;;;4200129;28;20051;-56
2023/05/28 06:22:35;;;;;;;33.15;12.45;;;16.90;93.70;;;;;;4200084;28;20049;-57
2023/05/28 06:24:38;;;;;;;29.65;13.05;;;16.90;93.30;;;;;;4200116;28;20471;-57
2023/05/28 06:26:41;;;;;;;25.55;11.73;;;16.90;93.30;;;;;;4208784;28;20330;-59
2023/05/28 06:28:43;;;;;;;25.50;12.38;;;17.00;93.10;;;;;;4215595;28;20052;-54
2023/05/28 06:30:45;;;;;;;20.90;10.27;;;17.00;93.10;;;;;;4216664;28;20123;-54
2023/05/28 06:32:47;;;;;;;24.88;10.38;;;17.00;93.20;;;;;;4198825;28;20056;-55
2023/05/28 06:34:51;;;;;;;23.27;10.77;;;17.10;93.50;;;;;;4216495;28;20127;-54
2023/05/28 06:36:53;;;;;;;34.85;13.07;;;17.20;93.40;;;;;;4216568;28;20043;-54
2023/05/28 06:38:55;;;;;;;21.52;10.57;;;17.40;93.00;;;;;;4205186;28;20044;-54
2023/05/28 06:40:58;;;;;;;27.02;10.70;;;17.40;93.00;;;;;;4199927;28;20048;-55
2023/05/28 06:43:01;;;;;;;23.30;10.15;;;17.40;92.90;;;;;;4199712;28;20052;-53
2023/05/28 06:45:03;;;;;;;25.08;10.32;;;17.50;93.00;;;;;;4199331;28;20051;-53
2023/05/28 06:47:06;;;;;;;28.05;11.70;;;17.60;92.70;;;;;;4199390;28;20048;-57
2023/05/28 06:49:08;;;;;;;21.75;9.50;;;17.60;92.70;;;;;;4199782;28;20060;-57
2023/05/28 06:51:11;;;;;;;25.25;11.43;;;17.70;92.80;;;;;;4201255;28;20055;-57
2023/05/28 06:53:13;;;;;;;31.88;12.00;;;17.80;92.30;;;;;;4199288;28;20047;-57
2023/05/28 06:55:16;;;;;;;28.05;12.38;;;17.90;92.10;;;;;;4199916;28;20131;-57
2023/05/28 06:57:18;;;;;;;29.73;12.15;;;17.90;92.10;;;;;;4198850;28;20055;-56
2023/05/28 06:59:20;;;;;;;25.67;11.50;;;18.00;91.90;;;;;;4199060;28;20467;-57
2023/05/28 07:01:22;;;;;;;38.95;12.82;;;18.10;91.80;;;;;;4199660;28;20052;-56
2023/05/28 07:03:25;;;;;;;24.02;12.00;;;18.20;91.50;;;;;;4200182;28;20067;-61
2023/05/28 07:05:27;;;;;;;23.92;11.23;;;18.30;91.50;;;;;;4199333;28;20468;-66
2023/05/28 07:07:31;;;;;;;23.92;9.75;;;18.50;91.60;;;;;;4199910;28;20203;-65
2023/05/28 07:09:35;;;;;;;25.02;11.32;;;18.70;91.50;;;;;;4200002;28;20047;-57
2023/05/28 07:11:37;;;;;;;25.90;11.38;;;18.90;91.20;;;;;;4199484;28;20488;-57
2023/05/28 07:13:39;;;;;;;29.27;12.10;;;19.10;91.00;;;;;;4198668;28;20063;-56
2023/05/28 07:15:42;;;;;;;28.80;12.48;;;19.10;90.50;;;;;;4199451;28;20052;-57
2023/05/28 07:17:44;;;;;;;28.15;11.32;;;19.20;90.30;;;;;;4197561;28;20456;-57
2023/05/28 07:19:46;;;;;;;23.20;10.65;;;19.30;90.60;;;;;;4198998;28;20040;-56
2023/05/28 07:21:48;;;;;;;25.63;12.02;;;19.50;90.60;;;;;;4199252;28;20135;-57
2023/05/28 07:23:52;;;;;;;23.80;10.68;;;19.60;90.40;;;;;;4199329;28;20517;-57
2023/05/28 07:25:54;;;;;;;27.35;11.80;;;19.70;90.10;;;;;;4201269;28;20037;-57
2023/05/28 07:27:57;;;;;;;26.52;11.68;;;19.90;90.00;;;;;;4214584;28;20074;-57
2023/05/28 07:30:00;;;;;;;28.02;11.07;;;20.00;89.30;;;;;;4215475;28;20047;-57
2023/05/28 07:32:02;;;;;;;26.08;11.05;;;20.10;89.30;;;;;;4215782;28;20457;-56
2023/05/28 07:34:05;;;;;;;27.25;11.75;;;20.20;88.40;;;;;;4215973;28;20148;-56
2023/05/28 07:36:08;;;;;;;30.73;11.68;;;20.10;87.90;;;;;;4215454;28;20045;-56
2023/05/28 07:38:12;;;;;;;22.83;9.63;;;20.20;88.80;;;;;;4210029;28;20052;-57
2023/05/28 07:40:16;;;;;;;23.20;10.50;;;20.30;89.00;;;;;;4198860;28;20415;-55
2023/05/28 07:42:18;;;;;;;23.75;9.77;;;20.40;89.00;;;;;;4198457;28;20056;-56
2023/05/28 07:44:21;;;;;;;26.20;10.52;;;20.50;88.80;;;;;;4198537;28;20056;-57
2023/05/28 07:46:23;;;;;;;19.10;9.20;;;20.50;87.10;;;;;;4198421;28;20072;-56
2023/05/28 07:48:25;;;;;;;23.27;9.63;;;20.50;87.30;;;;;;4197721;28;20044;-57
2023/05/28 07:50:28;;;;;;;22.17;8.90;;;20.60;87.00;;;;;;4198709;28;20051;-55
2023/05/28 07:52:30;;;;;;;24.63;9.13;;;20.80;87.00;;;;;;4198612;28;20120;-56
2023/05/28 07:54:34;;;;;;;20.38;8.98;;;20.90;86.40;;;;;;4198690;28;20406;-57
2023/05/28 07:56:38;;;;;;;23.75;9.95;;;20.80;85.90;;;;;;4198010;28;20048;-55
2023/05/28 07:58:43;;;;;;;20.10;9.10;;;20.70;86.20;;;;;;4197611;28;20490;-56
2023/05/28 08:00:45;;;;;;;22.67;8.95;;;20.80;86.10;;;;;;4198658;28;20055;-55
2023/05/28 08:02:47;;;;;;;22.45;9.80;;;20.90;86.30;;;;;;4198205;28;20144;-54
2023/05/28 08:04:51;;;;;;;19.10;8.75;;;20.90;86.20;;;;;;4198650;28;20144;-54
2023/05/28 08:06:53;;;;;;;24.23;9.27;;;21.00;86.70;;;;;;4198557;28;20056;-55
2023/05/28 08:08:55;;;;;;;23.10;8.88;;;21.10;86.90;;;;;;4197519;28;20146;-54
2023/05/28 08:10:58;;;;;;;25.58;9.18;;;21.20;85.60;;;;;;4197996;28;20044;-58
2023/05/28 08:13:02;;;;;;;17.02;7.78;;;21.10;85.30;;;;;;4197083;28;20464;-54
2023/05/28 08:15:05;;;;;;;20.55;9.07;;;21.20;85.40;;;;;;4198339;28;20080;-55
2023/05/28 08:17:07;;;;;;;22.98;8.95;;;21.20;84.30;;;;;;4198094;28;20048;-54
2023/05/28 08:19:09;;;;;;;22.42;8.77;;;21.10;84.70;;;;;;4197101;28;20040;-54
2023/05/28 08:21:11;;;;;;;21.90;8.55;;;21.30;85.10;;;;;;4198012;28;20044;-55
2023/05/28 08:23:15;;;;;;;26.50;8.90;;;21.40;85.40;;;;;;4198297;28;20118;-52
2023/05/28 08:25:17;;;;;;;21.63;8.52;;;21.40;84.70;;;;;;4197999;28;20049;-52
2023/05/28 08:27:20;;;;;;;18.73;8.30;;;21.50;84.20;;;;;;4196482;28;20067;-55
2023/05/28 08:29:24;;;;;;;20.13;8.18;;;21.50;83.80;;;;;;4215925;28;20051;-55
2023/05/28 08:31:26;;;;;;;16.13;7.90;;;21.50;84.30;;;;;;4217021;28;20044;-56
2023/05/28 08:33:29;;;;;;;23.83;8.98;;;21.50;84.40;;;;;;4216476;28;20044;-55
2023/05/28 08:35:31;;;;;;;23.63;8.52;;;21.70;84.80;;;;;;4214999;28;20064;-55
2023/05/28 08:37:33;;;;;;;23.50;9.32;;;21.60;84.30;;;;;;4213981;28;20126;-52
2023/05/28 08:39:35;;;;;;;20.30;7.53;;;21.50;84.00;;;;;;4198503;28;20049;-52
2023/05/28 08:41:38;;;;;;;20.35;8.13;;;21.40;84.60;;;;;;4197859;28;20052;-53
2023/05/28 08:43:40;;;;;;;23.90;8.88;;;21.60;84.50;;;;;;4197653;28;20490;-53
2023/05/28 08:45:44;;;;;;;19.33;7.60;;;21.60;84.00;;;;;;4197594;28;20052;-53
2023/05/28 08:47:48;;;;;;;25.27;8.35;;;21.50;84.60;;;;;;4196988;28;20127;-53
2023/05/28 08:49:53;;;;;;;20.20;8.35;;;21.60;84.90;;;;;;4197849;28;20040;-53
2023/05/28 08:51:59;;;;;;;25.40;8.45;;;21.70;84.70;;;;;;4197603;28;20059;-52
2023/05/28 08:54:02;;;;;;;28.35;8.50;;;21.80;84.10;;;;;;4196419;28;20041;-53
2023/05/28 08:56:05;;;;;;;18.80;7.57;;;21.70;83.80;;;;;;4197163;28;20066;-61
2023/05/28 08:58:07;;;;;;;20.75;8.20;;;21.70;83.90;;;;;;4196788;28;20048;-53
2023/05/28 09:00:11;;;;;;;18.45;6.93;;;21.70;83.50;;;;;;4197683;28;20131;-54
2023/05/28 09:02:15;;;;;;;21.83;8.15;;;21.80;83.80;;;;;;4197947;28;20072;-54
2023/05/28 09:04:18;;;;;;;19.73;7.63;;;21.90;88.20;;;;;;4197229;28;20121;-58
2023/05/28 09:06:24;;;;;;;20.80;8.77;;;21.80;87.10;;;;;;4197820;28;20048;-54
2023/05/28 09:08:26;;;;;;;21.17;7.28;;;21.70;85.10;;;;;;4196220;28;20414;-55
2023/05/28 09:10:30;;;;;;;22.20;7.53;;;21.60;84.70;;;;;;4197306;28;20051;-53
2023/05/28 09:12:32;;;;;;;18.63;7.35;;;21.60;85.10;;;;;;4197725;28;20050;-55
2023/05/28 09:14:39;;;;;;;26.90;7.60;;;21.90;84.80;;;;;;4197282;28;20041;-55
2023/05/28 09:16:43;;;;;;;23.25;7.07;;;22.00;84.80;;;;;;4197504;28;20419;-56
2023/05/28 09:18:49;;;;;;;19.73;7.13;;;22.10;84.40;;;;;;4195290;28;20048;-55
2023/05/28 09:20:52;;;;;;;20.88;7.35;;;22.30;83.10;;;;;;4197266;28;20049;-55
2023/05/28 09:23:00;;;;;;;21.30;7.60;;;22.30;83.80;;;;;;4197284;28;20171;-52
2023/05/28 09:25:03;;;;;;;18.38;6.95;;;22.30;83.50;;;;;;4196863;28;20492;-52
2023/05/28 09:27:06;;;;;;;16.75;6.57;;;22.50;84.00;;;;;;4209681;28;20044;-55
2023/05/28 09:29:12;;;;;;;19.33;6.95;;;22.60;82.70;;;;;;4212862;28;20048;-54
2023/05/28 09:31:14;;;;;;;20.08;7.68;;;22.60;82.70;;;;;;4213906;28;20050;-53
2023/05/28 09:33:18;;;;;;;17.77;6.88;;;22.60;82.00;;;;;;4213739;28;20052;-53
2023/05/28 09:35:25;;;;;;;21.63;6.65;;;22.50;82.10;;;;;;4197182;28;20563;-54
2023/05/28 09:37:28;;;;;;;20.05;7.20;;;22.60;81.40;;;;;;4197092;28;20061;-54
2023/05/28 09:39:30;;;;;;;19.67;6.40;;;22.80;81.90;;;;;;4210603;28;20040;-54
2023/05/28 09:41:33;;;;;;;16.90;5.45;;;22.80;80.80;;;;;;4213777;28;20528;-54
2023/05/28 09:43:37;;;;;;;17.35;6.28;;;22.90;78.60;;;;;;4213523;28;20075;-52
2023/05/28 09:45:39;;;;;;;21.40;6.38;;;23.20;79.60;;;;;;4195799;28;20128;-52
2023/05/28 09:47:43;;;;;;;18.75;6.97;;;23.30;80.10;;;;;;4213311;28;20048;-55
2023/05/28 09:49:47;;;;;;;15.60;6.90;;;23.20;80.60;;;;;;4213242;28;20048;-55
2023/05/28 09:51:53;;;;;;;20.70;6.77;;;23.20;80.40;;;;;;4213779;28;20048;-55
2023/05/28 09:53:57;;;;;;;17.20;6.43;;;23.20;80.10;;;;;;4213140;28;20048;-55
2023/05/28 09:56:00;;;;;;;16.43;6.00;;;23.20;80.00;;;;;;4213513;28;20128;-55
2023/05/28 09:58:03;;;;;;;16.48;6.55;;;23.40;79.90;;;;;;4212592;28;20846;-55
2023/05/28 10:00:14;;;;;;;21.63;7.40;;;23.40;79.10;;;;;;4213477;28;20048;-55
2023/05/28 10:02:25;;;;;;;18.27;5.97;;;23.30;79.10;;;;;;4213542;28;20482;-55
2023/05/28 10:04:33;;;;;;;16.40;5.85;;;23.30;80.00;;;;;;4213471;28;20082;-58
2023/05/28 10:06:39;;;;;;;16.52;5.57;;;23.60;78.40;;;;;;4213681;28;20135;-53
2023/05/28 10:08:46;;;;;;;17.35;5.90;;;23.70;78.10;;;;;;4212103;28;20040;-54
2023/05/28 10:10:53;;;;;;;16.17;5.43;;;23.70;78.40;;;;;;4196430;28;20524;-56
2023/05/28 10:12:57;;;;;;;20.10;5.78;;;23.70;78.70;;;;;;4214661;28;20080;-57
2023/05/28 10:15:00;;;;;;;11.47;5.63;;;24.00;77.50;;;;;;4213921;28;20074;-54
2023/05/28 10:17:02;;;;;;;15.25;5.20;;;24.10;77.60;;;;;;4213830;28;20048;-53
2023/05/28 10:19:04;;;;;;;17.75;6.63;;;24.10;76.60;;;;;;4212496;28;20543;-54
2023/05/28 10:21:07;;;;;;;14.15;5.82;;;24.10;76.20;;;;;;4213762;28;20115;-55
2023/05/28 10:23:10;;;;;;;13.25;4.78;;;24.10;75.40;;;;;;4213254;28;20048;-53
2023/05/28 10:25:15;;;;;;;19.83;5.88;;;24.10;75.00;;;;;;4213751;28;20062;-54
2023/05/28 10:27:18;;;;;;;17.42;5.38;;;24.20;75.30;;;;;;4195630;28;20048;-53
2023/05/28 10:29:21;;;;;;;15.45;5.68;;;24.20;75.20;;;;;;4195845;28;20040;-51